Time;durP1;ratioP1;P1;durP2;ratioP2;P2;SDS_P1;SDS_P2;PMS_P1;PMS_P2;Temp;Humidity;BMP_temperature;BMP_pressure;BME280_temperature;BME280_humidity;BME280_pressure;Samples;Min_cycle;Max_cycle;Signal;HPM_P1;HPM_P2
2021/06/10 00:01:27;;;;;;;55.75;43.50;;;;;;;17.42;60.12;99105.64;2176381;82;20989;-79
2021/06/10 00:04:28;;;;;;;179.27;141.45;;;;;;;17.66;58.99;99110.66;2176076;82;20968;-80
2021/06/10 00:07:29;;;;;;;180.30;149.10;;;;;;;17.84;58.26;99114.83;2176178;82;20928;-80
2021/06/10 00:10:30;;;;;;;100.47;77.15;;;;;;;18.00;57.23;99112.85;2176135;82;20984;-80
2021/06/10 00:13:31;;;;;;;56.58;45.75;;;;;;;17.95;56.49;99118.20;2176268;82;20932;-80
2021/06/10 00:16:32;;;;;;;61.48;43.05;;;;;;;17.80;56.12;99115.31;2175995;82;20912;-80
2021/06/10 00:19:33;;;;;;;46.95;30.70;;;;;;;17.72;56.11;99106.62;2176024;82;20951;-79
2021/06/10 00:22:34;;;;;;;40.78;27.60;;;;;;;17.66;55.71;99110.66;2176032;82;20972;-80
2021/06/10 00:25:35;;;;;;;57.83;42.25;;;;;;;17.54;55.97;99105.49;2175875;81;21023;-79
2021/06/10 00:28:36;;;;;;;97.80;76.82;;;;;;;17.57;56.10;99104.13;2176150;82;20996;-80
2021/06/10 00:31:37;;;;;;;198.45;161.73;;;;;;;17.65;55.80;99104.04;2176153;82;20931;-80
2021/06/10 00:34:39;;;;;;;127.22;100.97;;;;;;;17.70;55.67;99103.56;2175889;82;20944;-79
2021/06/10 00:37:39;;;;;;;71.50;53.00;;;;;;;17.65;55.47;99109.31;2176041;82;21159;-81
2021/06/10 00:40:41;;;;;;;158.50;52.98;;;;;;;17.57;55.47;99108.09;2175802;82;20980;-78
2021/06/10 00:43:41;;;;;;;35.88;19.20;;;;;;;17.58;55.07;99100.60;2175948;82;21008;-79
2021/06/10 00:46:42;;;;;;;16.07;10.88;;;;;;;17.58;53.89;99103.24;2176534;82;21019;-79
2021/06/10 00:49:43;;;;;;;16.32;8.30;;;;;;;16.46;53.70;99103.83;2176540;82;20929;-79
2021/06/10 00:52:44;;;;;;;20.20;10.05;;;;;;;15.43;54.94;99110.48;2176455;81;20971;-77
2021/06/10 00:55:45;;;;;;;16.17;8.73;;;;;;;14.62;56.53;99107.53;2165290;82;21243;-78
2021/06/10 00:58:46;;;;;;;12.80;9.38;;;;;;;14.03;57.77;99104.82;2148437;83;20936;-79
2021/06/10 01:01:47;;;;;;;20.05;9.73;;;;;;;13.66;58.96;99101.19;2148607;83;20932;-79
2021/06/10 01:04:48;;;;;;;18.35;9.28;;;;;;;13.37;59.84;99096.70;2148319;83;20967;-79
2021/06/10 01:07:49;;;;;;;17.07;8.95;;;;;;;13.15;60.53;99092.63;2148551;83;20905;-80
2021/06/10 01:10:50;;;;;;;12.75;8.80;;;;;;;12.93;61.32;99091.16;2148450;83;20935;-80
2021/06/10 01:13:51;;;;;;;24.40;9.60;;;;;;;12.75;61.99;99094.96;2148172;83;20956;-79
2021/06/10 01:16:52;;;;;;;24.75;9.73;;;;;;;12.49;62.37;99094.77;2148352;83;20971;-79
2021/06/10 01:19:53;;;;;;;20.88;9.33;;;;;;;12.27;63.26;99092.83;2148429;83;20972;-79
2021/06/10 01:22:54;;;;;;;15.95;9.85;;;;;;;12.09;64.04;99087.84;2148447;83;20975;-80
2021/06/10 01:25:55;;;;;;;24.47;10.80;;;;;;;12.00;64.56;99098.21;2148186;83;21003;-79
2021/06/10 01:28:56;;;;;;;14.43;9.43;;;;;;;11.89;65.15;99090.69;2148518;83;20927;-79
2021/06/10 01:31:59;;;;;;;19.55;9.75;;;;;;;11.83;65.62;99097.16;2148420;83;21307;-80
2021/06/10 01:35:00;;;;;;;16.12;10.03;;;;;;;11.77;66.07;99093.13;2148554;83;20944;-79
2021/06/10 01:38:01;;;;;;;19.60;9.45;;;;;;;11.68;66.27;99093.91;2148618;83;20924;-79
2021/06/10 01:41:02;;;;;;;54.13;12.13;;;;;;;11.57;66.61;99098.14;2148472;83;20904;-79
2021/06/10 01:44:03;;;;;;;17.82;10.65;;;;;;;11.47;67.04;99102.37;2148421;83;20958;-80
2021/06/10 01:47:04;;;;;;;23.02;10.78;;;;;;;11.41;67.44;99102.30;2148719;83;21162;-79
2021/06/10 01:50:05;;;;;;;17.20;10.82;;;;;;;11.36;67.76;99104.41;2148619;83;20904;-79
2021/06/10 01:53:06;;;;;;;217.05;158.63;;;;;;;11.29;68.14;99107.38;2147906;83;20964;-79
2021/06/10 01:56:07;;;;;;;49.73;36.43;;;;;;;12.66;71.74;99102.75;2159980;81;20964;-79
2021/06/10 01:59:08;;;;;;;23.10;17.20;;;;;;;12.99;66.41;99094.24;2175491;82;20996;-78
2021/06/10 02:02:09;;;;;;;36.73;14.53;;;;;;;12.53;65.63;99100.47;2175999;82;20984;-79
2021/06/10 02:05:10;;;;;;;21.17;11.95;;;;;;;12.20;65.93;99102.80;2176171;82;20936;-80
2021/06/10 02:08:11;;;;;;;15.72;11.18;;;;;;;11.98;66.26;99100.37;2176058;82;20924;-79
2021/06/10 02:11:12;;;;;;;17.42;11.00;;;;;;;11.82;66.58;99099.33;2176553;82;20944;-80
2021/06/10 02:14:13;;;;;;;23.05;11.63;;;;;;;11.63;66.96;99101.25;2176153;82;20915;-79
2021/06/10 02:17:14;;;;;;;18.92;11.43;;;;;;;11.44;67.56;99106.69;2176050;82;20909;-79
2021/06/10 02:20:14;;;;;;;22.40;13.20;;;;;;;11.34;67.84;99105.70;2176246;82;20948;-81
2021/06/10 02:23:15;;;;;;;36.20;14.63;;;;;;;11.30;68.20;99107.83;2176169;82;21395;-80
2021/06/10 02:26:16;;;;;;;19.10;12.60;;;;;;;11.23;68.38;99104.65;2176291;80;21055;-80
2021/06/10 02:29:17;;;;;;;14.18;12.20;;;;;;;11.21;68.56;99108.09;2176395;82;20916;-81
2021/06/10 02:32:18;;;;;;;15.53;12.03;;;;;;;11.16;68.84;99105.42;2176419;82;20972;-80
2021/06/10 02:35:19;;;;;;;15.88;11.78;;;;;;;11.16;69.04;99113.27;2176313;82;21354;-81
2021/06/10 02:38:20;;;;;;;20.70;13.50;;;;;;;11.13;68.98;99113.22;2176850;82;20976;-79
2021/06/10 02:41:21;;;;;;;19.90;12.03;;;;;;;11.12;69.27;99111.47;2176017;81;20936;-80
2021/06/10 02:44:22;;;;;;;39.53;30.37;;;;;;;11.13;69.30;99121.06;2176247;82;20967;-81
2021/06/10 02:47:23;;;;;;;40.50;29.47;;;;;;;11.09;69.34;99119.26;2176345;82;20905;-80
2021/06/10 02:50:24;;;;;;;16.02;13.48;;;;;;;11.10;69.41;99124.94;2176076;82;21047;-80
2021/06/10 02:53:25;;;;;;;21.53;13.30;;;;;;;11.11;69.51;99125.38;2176197;82;20919;-80
2021/06/10 02:56:27;;;;;;;16.55;13.68;;;;;;;11.14;69.53;99124.13;2183342;81;21316;-80
2021/06/10 02:59:28;;;;;;;18.48;12.70;;;;;;;11.15;69.46;99125.88;2192638;81;20999;-79
2021/06/10 03:02:28;;;;;;;29.27;13.80;;;;;;;11.13;69.55;99126.28;2192174;81;21128;-79
2021/06/10 03:05:29;;;;;;;15.80;11.97;;;;;;;11.12;69.56;99125.84;2192360;81;20991;-80
2021/06/10 03:08:30;;;;;;;18.53;11.73;;;;;;;11.15;69.77;99128.06;2192534;81;21003;-79
2021/06/10 03:11:31;;;;;;;18.20;10.88;;;;;;;11.22;69.80;99123.80;2192477;81;20935;-80
2021/06/10 03:14:32;;;;;;;18.40;11.20;;;;;;;11.33;69.78;99125.28;2192600;81;20916;-80
2021/06/10 03:17:33;;;;;;;21.90;11.90;;;;;;;11.40;69.60;99128.00;2192617;81;20931;-80
2021/06/10 03:20:34;;;;;;;65.30;49.63;;;;;;;11.51;69.66;99132.05;2192542;81;20928;-80
2021/06/10 03:23:35;;;;;;;17.82;13.22;;;;;;;11.61;69.63;99126.08;2192538;81;20947;-80
2021/06/10 03:26:36;;;;;;;16.80;12.18;;;;;;;11.71;69.57;99129.68;2192288;80;21007;-81
2021/06/10 03:29:37;;;;;;;23.67;12.63;;;;;;;11.74;69.44;99132.33;2192712;81;20944;-80
2021/06/10 03:32:38;;;;;;;17.32;12.73;;;;;;;11.88;69.85;99128.16;2192760;81;21347;-80
2021/06/10 03:35:39;;;;;;;32.42;11.65;;;;;;;11.98;69.62;99131.77;2192813;81;21327;-82
2021/06/10 03:38:40;;;;;;;24.92;11.35;;;;;;;12.06;69.61;99128.80;2192895;81;20936;-81
2021/06/10 03:41:41;;;;;;;18.98;12.25;;;;;;;12.16;69.57;99125.44;2192978;81;20959;-82
2021/06/10 03:44:42;;;;;;;60.03;15.08;;;;;;;12.29;69.47;99127.75;2192411;81;20950;-81
2021/06/10 03:47:43;;;;;;;17.62;12.30;;;;;;;12.40;69.30;99127.41;2192856;81;20904;-82
2021/06/10 03:50:44;;;;;;;18.52;12.28;;;;;;;12.51;69.08;99127.07;2192928;81;20983;-81
2021/06/10 03:53:45;;;;;;;23.15;12.58;;;;;;;12.62;69.02;99128.47;2192926;81;21000;-80
2021/06/10 03:56:46;;;;;;;14.93;11.50;;;;;;;12.77;68.82;99128.59;2181578;80;21031;-80
2021/06/10 03:59:47;;;;;;;20.60;12.73;;;;;;;12.98;68.60;99132.67;2169596;82;21336;-82
2021/06/10 04:02:48;;;;;;;18.48;12.25;;;;;;;13.18;68.27;99135.92;2169519;82;20968;-83
2021/06/10 04:05:49;;;;;;;22.75;12.80;;;;;;;13.34;67.96;99130.77;2169763;82;20910;-81
2021/06/10 04:08:50;;;;;;;21.02;13.03;;;;;;;13.54;67.48;99129.55;2169425;82;21017;-79
2021/06/10 04:11:51;;;;;;;16.40;11.95;;;;;;;13.79;67.33;99124.41;2169881;82;21031;-81
2021/06/10 04:14:52;;;;;;;14.18;12.07;;;;;;;14.08;66.83;99131.08;2169460;82;20952;-80
2021/06/10 04:17:53;;;;;;;19.45;12.28;;;;;;;14.33;66.27;99136.81;2169504;82;20968;-82
2021/06/10 04:20:55;;;;;;;16.75;12.00;;;;;;;14.54;65.76;99130.30;2169357;82;21396;-82
2021/06/10 04:23:56;;;;;;;11.85;10.23;;;;;;;14.68;65.24;99130.74;2169829;82;21024;-80
2021/06/10 04:26:57;;;;;;;17.40;10.82;;;;;;;14.88;65.09;99134.27;2169713;81;21039;-81
2021/06/10 04:29:58;;;;;;;13.70;10.50;;;;;;;15.14;64.67;99126.34;2170138;82;21332;-81
2021/06/10 04:32:59;;;;;;;17.55;10.08;;;;;;;15.44;64.22;99126.70;2169795;82;21008;-82
2021/06/10 04:36:00;;;;;;;14.13;10.38;;;;;;;15.65;63.16;99121.43;2169619;82;21354;-80
2021/06/10 04:39:01;;;;;;;11.25;10.15;;;;;;;15.68;63.05;99125.36;2169873;82;20928;-82
2021/06/10 04:42:03;;;;;;;15.20;9.83;;;;;;;15.71;62.75;99121.41;2169681;82;21774;-82
2021/06/10 04:45:04;;;;;;;11.55;8.43;;;;;;;15.77;62.64;99116.55;2169781;82;21305;-81
2021/06/10 04:48:05;;;;;;;20.82;9.48;;;;;;;15.85;62.53;99120.89;2169645;82;20916;-82
2021/06/10 04:51:06;;;;;;;11.10;9.25;;;;;;;16.01;62.56;99123.45;2169460;82;20912;-83
2021/06/10 04:54:07;;;;;;;11.45;9.15;;;;;;;16.24;62.26;99126.81;2169425;82;20992;-81
2021/06/10 04:57:08;;;;;;;13.70;9.25;;;;;;;16.33;61.94;99129.83;2169076;81;21028;-81
2021/06/10 05:03:12;;;;;;;12.65;10.15;;;;;;;16.73;61.21;99130.03;2146065;82;20964;-80
2021/06/10 05:06:13;;;;;;;13.15;8.48;;;;;;;16.96;60.81;99134.22;2168772;82;20948;-80
2021/06/10 05:12:16;;;;;;;9.90;7.40;;;;;;;17.34;59.62;99127.24;2146016;82;21265;-81
2021/06/10 05:15:17;;;;;;;12.40;8.00;;;;;;;17.62;58.75;99124.75;2169353;82;21332;-81
2021/06/10 05:18:18;;;;;;;17.50;7.20;;;;;;;17.83;58.32;99129.80;2169451;82;20968;-81
2021/06/10 05:21:19;;;;;;;9.20;7.37;;;;;;;18.04;57.40;99137.01;2169541;82;21024;-81
2021/06/10 05:24:23;;;;;;;8.90;6.53;;;;;;;18.14;57.17;99130.70;2169629;82;20995;-81
2021/06/10 05:27:23;;;;;;;15.30;6.53;;;;;;;18.24;57.26;99132.34;2169211;81;21380;-81
2021/06/10 05:30:24;;;;;;;7.45;6.20;;;;;;;18.34;56.11;99133.96;2169458;82;20944;-81
2021/06/10 05:33:25;;;;;;;12.50;5.85;;;;;;;18.51;56.02;99139.44;2169442;82;20925;-83
2021/06/10 05:36:26;;;;;;;5.60;5.10;;;;;;;18.69;55.88;99132.58;2169884;82;20909;-82
2021/06/10 05:39:27;;;;;;;11.03;5.78;;;;;;;18.98;55.58;99128.11;2169756;82;21340;-81
2021/06/10 05:42:29;;;;;;;11.75;5.45;;;;;;;19.17;54.64;99132.20;2169688;82;21365;-81
2021/06/10 05:45:30;;;;;;;95.32;11.57;;;;;;;19.30;53.98;99128.88;2169248;82;21380;-83
2021/06/10 05:51:33;;;;;;;5.92;5.10;;;;;;;19.58;53.17;99116.89;2145820;82;20969;-81
2021/06/10 05:54:36;;;;;;;5.05;4.55;;;;;;;19.72;53.10;99117.93;2146807;82;20881;-83
2021/06/10 05:57:37;;;;;;;5.33;4.72;;;;;;;19.86;51.44;99121.16;2183402;81;21007;-82
2021/06/10 06:00:38;;;;;;;6.95;4.58;;;;;;;19.97;52.00;99120.52;2192721;81;20987;-81
2021/06/10 06:03:39;;;;;;;5.58;4.20;;;;;;;20.13;51.19;99123.70;2192516;81;20999;-82
2021/06/10 06:06:41;;;;;;;4.58;3.80;;;;;;;20.18;50.28;99126.24;2192661;81;20903;-82
2021/06/10 06:09:41;;;;;;;11.97;4.62;;;;;;;20.33;49.68;99122.79;2193081;81;20938;-81
2021/06/10 06:12:44;;;;;;;4.50;4.10;;;;;;;20.50;49.16;99129.52;2192504;81;20955;-82
2021/06/10 06:15:46;;;;;;;5.47;3.45;;;;;;;20.53;48.44;99124.13;2193008;81;20939;-81
2021/06/10 06:18:47;;;;;;;4.00;3.70;;;;;;;20.47;47.56;99129.58;2193039;81;20975;-82
2021/06/10 06:21:48;;;;;;;5.35;4.15;;;;;;;20.47;47.39;99130.91;2192856;81;21288;-81
2021/06/10 06:24:49;;;;;;;3.58;3.27;;;;;;;20.62;47.99;99131.41;2193077;81;21165;-80
2021/06/10 06:27:50;;;;;;;4.37;3.98;;;;;;;20.69;46.03;99128.16;2192730;80;21018;-81
2021/06/10 06:30:51;;;;;;;4.85;3.42;;;;;;;20.77;46.16;99130.17;2193360;81;20955;-78
2021/06/10 06:33:51;;;;;;;3.87;3.47;;;;;;;20.93;45.77;99130.69;2192636;81;20963;-81
2021/06/10 06:36:52;;;;;;;4.00;3.52;;;;;;;21.05;46.28;99122.86;2193031;81;20967;-84
2021/06/10 06:39:53;;;;;;;4.85;3.80;;;;;;;21.25;45.72;99126.77;2192872;81;20951;-80
2021/06/10 06:42:55;;;;;;;4.72;4.03;;;;;;;21.51;44.77;99124.73;2192446;81;20911;-82
2021/06/10 06:45:56;;;;;;;3.55;3.30;;;;;;;21.60;44.81;99124.47;2192574;81;21025;-82
2021/06/10 06:48:57;;;;;;;6.90;3.80;;;;;;;21.65;44.77;99130.11;2192455;81;20998;-83
2021/06/10 06:51:58;;;;;;;4.75;3.60;;;;;;;21.74;44.87;99136.06;2192821;81;20947;-83
2021/06/10 06:54:59;;;;;;;4.67;3.85;;;;;;;21.62;44.93;99126.63;2191951;81;20923;-82
2021/06/10 06:58:00;;;;;;;5.12;2.92;;;;;;;21.69;44.62;99134.00;2191637;81;21003;-82
2021/06/10 07:01:01;;;;;;;7.05;3.10;;;;;;;21.77;44.08;99136.43;2192385;81;21012;-82
2021/06/10 07:04:02;;;;;;;4.00;3.10;;;;;;;21.85;43.78;99133.97;2192572;81;21677;-82
2021/06/10 07:07:03;;;;;;;2.98;2.67;;;;;;;21.97;43.04;99128.75;2192304;81;20968;-83
2021/06/10 07:10:04;;;;;;;4.17;2.20;;;;;;;22.11;43.02;99135.88;2192556;81;20904;-84
2021/06/10 07:13:07;;;;;;;2.92;2.55;;;;;;;22.01;41.45;99129.06;2192455;81;20976;-84
2021/06/10 07:16:08;;;;;;;3.12;2.65;;;;;;;22.06;42.15;99129.83;2192725;81;20963;-85
2021/06/10 07:19:12;;;;;;;8.00;2.77;;;;;;;22.14;41.22;99140.23;2192572;81;21336;-82
2021/06/10 07:22:13;;;;;;;49.03;5.72;;;;;;;22.20;40.97;99134.73;2192417;81;21368;-82
2021/06/10 07:25:18;;;;;;;3.75;2.30;;;;;;;22.34;41.06;99134.30;2192356;81;21303;-82
2021/06/10 07:28:19;;;;;;;3.17;2.15;;;;;;;22.48;40.87;99130.30;2192458;81;21070;-82
2021/06/10 07:31:20;;;;;;;3.90;2.70;;;;;;;22.68;40.00;99141.66;2192605;81;20931;-83
2021/06/10 07:34:21;;;;;;;3.00;2.33;;;;;;;22.74;40.34;99136.14;2192509;81;21003;-83
2021/06/10 07:37:22;;;;;;;5.03;2.58;;;;;;;22.74;40.71;99141.92;2192461;81;20996;-82
2021/06/10 07:40:23;;;;;;;2.67;2.30;;;;;;;22.80;41.12;99137.30;2193399;81;20958;-81
2021/06/10 07:43:24;;;;;;;2.35;2.15;;;;;;;22.78;39.26;99155.07;2192617;81;20959;-81
2021/06/10 07:46:25;;;;;;;2.65;2.20;;;;;;;22.75;39.90;99148.98;2192772;81;20987;-82
2021/06/10 07:49:27;;;;;;;2.40;2.08;;;;;;;22.87;40.02;99141.49;2192449;81;20928;-81
2021/06/10 07:52:28;;;;;;;2.72;2.52;;;;;;;22.99;40.66;99146.87;2192565;81;20975;-83
2021/06/10 07:55:29;;;;;;;2.98;2.27;;;;;;;23.13;40.90;99139.74;2192672;81;20928;-81
2021/06/10 07:58:37;;;;;;;2.87;2.30;;;;;;;23.28;39.93;99141.88;2192373;80;21422;-82
2021/06/10 08:01:38;;;;;;;9.43;2.58;;;;;;;23.44;39.87;99134.25;2192683;81;20950;-82
2021/06/10 08:04:39;;;;;;;4.35;2.25;;;;;;;23.50;39.50;99148.22;2192830;81;20924;-83
2021/06/10 08:07:43;;;;;;;2.30;2.10;;;;;;;23.51;39.18;99134.44;2192522;81;21359;-82
2021/06/10 08:10:45;;;;;;;;;;;;;;;23.69;38.74;99150.25;2194867;81;20963;-83
2021/06/10 08:13:46;;;;;;;2.55;2.35;;;;;;;23.65;38.69;99146.83;2192750;81;20372;-83
2021/06/10 08:16:47;;;;;;;3.05;2.10;;;;;;;23.69;39.42;99137.80;2192609;81;20988;-83
2021/06/10 08:19:48;;;;;;;2.40;2.20;;;;;;;23.71;37.65;99130.61;2192215;81;20936;-80
2021/06/10 08:22:53;;;;;;;2.50;2.30;;;;;;;23.83;38.33;99127.95;2191430;81;20970;-81
2021/06/10 08:25:54;;;;;;;2.40;1.90;;;;;;;23.92;37.64;99140.07;2191074;81;21003;-82
2021/06/10 08:28:54;;;;;;;3.20;1.80;;;;;;;23.93;37.19;99132.48;2192441;80;21086;-82
2021/06/10 08:31:55;;;;;;;4.47;2.45;;;;;;;23.99;35.12;99143.78;2192235;81;20988;-82
2021/06/10 08:34:56;;;;;;;2.40;2.20;;;;;;;24.05;36.94;99130.67;2191850;81;21002;-82
2021/06/10 08:37:58;;;;;;;2.40;2.20;;;;;;;24.09;37.57;99133.63;2192616;81;20904;-81
2021/06/10 08:40:59;;;;;;;2.10;2.00;;;;;;;24.17;36.46;99140.88;2192436;81;21271;-81
2021/06/10 08:44:00;;;;;;;2.67;2.08;;;;;;;24.17;35.95;99134.67;2192362;81;21327;-81
2021/06/10 08:47:02;;;;;;;2.98;1.90;;;;;;;24.36;36.88;99135.29;2192499;81;20962;-81
2021/06/10 08:50:03;;;;;;;9.68;2.20;;;;;;;24.71;37.01;99137.01;2192418;81;20967;-79
2021/06/10 08:53:07;;;;;;;2.33;1.95;;;;;;;24.88;34.50;99165.68;2192405;81;21256;-81
2021/06/10 08:56:07;;;;;;;5.10;2.27;;;;;;;24.85;35.51;99136.44;2192586;81;20948;-83
2021/06/10 08:59:09;;;;;;;1.67;1.57;;;;;;;24.97;35.33;99142.17;2172275;80;21415;-82
2021/06/10 09:02:10;;;;;;;2.43;2.10;;;;;;;24.89;34.85;99144.72;2169667;82;21000;-82
2021/06/10 09:05:11;;;;;;;4.42;2.30;;;;;;;25.19;35.04;99138.16;2169297;82;21198;-82
2021/06/10 09:08:12;;;;;;;12.85;2.47;;;;;;;25.43;35.19;99132.21;2169212;82;20984;-83
2021/06/10 09:11:13;;;;;;;3.98;1.95;;;;;;;25.12;33.97;99166.49;2168913;82;21347;-81
2021/06/10 09:14:14;;;;;;;2.05;1.95;;;;;;;25.07;34.81;99143.98;2169550;82;20996;-81
2021/06/10 09:17:15;;;;;;;3.62;2.15;;;;;;;25.18;34.56;99136.89;2169428;82;21308;-82
2021/06/10 09:20:16;;;;;;;1.92;1.82;;;;;;;25.62;35.21;99140.28;2169407;82;20932;-81
2021/06/10 09:23:17;;;;;;;3.95;2.20;;;;;;;26.03;34.48;99140.67;2169134;82;20975;-79
2021/06/10 09:26:18;;;;;;;11.57;2.10;;;;;;;26.14;33.54;99147.33;2168930;82;20988;-80
2021/06/10 09:29:19;;;;;;;2.05;1.87;;;;;;;25.72;33.62;99142.98;2168870;82;20916;-80
2021/06/10 09:32:20;;;;;;;2.50;2.30;;;;;;;25.33;34.54;99140.23;2169250;82;20912;-82
2021/06/10 09:35:21;;;;;;;2.77;2.00;;;;;;;25.53;33.69;99146.03;2169181;82;20976;-81
2021/06/10 09:38:23;;;;;;;2.80;2.25;;;;;;;25.79;34.14;99139.56;2168781;82;21008;-80
2021/06/10 09:41:24;;;;;;;2.00;1.90;;;;;;;26.14;33.02;99139.30;2169425;82;20992;-82
2021/06/10 09:44:25;;;;;;;1.87;1.77;;;;;;;25.95;33.35;99145.94;2168883;82;21324;-81
2021/06/10 09:47:26;;;;;;;6.78;2.17;;;;;;;25.90;33.14;99140.80;2168541;82;20924;-79
2021/06/10 09:50:28;;;;;;;4.78;2.12;;;;;;;26.15;33.01;99139.70;2169189;82;21011;-81
2021/06/10 09:53:31;;;;;;;2.87;1.80;;;;;;;26.19;32.16;99157.34;2169216;82;20992;-81
2021/06/10 09:56:32;;;;;;;3.75;2.22;;;;;;;25.94;32.60;99146.41;2168783;81;21423;-80
2021/06/10 09:59:33;;;;;;;2.30;1.87;;;;;;;25.99;31.99;99142.19;2175071;82;20982;-82
2021/06/10 10:02:34;;;;;;;6.72;2.25;;;;;;;26.26;32.20;99146.28;2176350;81;21047;-82
2021/06/10 10:05:35;;;;;;;2.20;2.00;;;;;;;26.49;32.10;99137.66;2176199;82;21051;-80
2021/06/10 10:08:36;;;;;;;2.22;1.90;;;;;;;26.96;31.69;99143.39;2176466;81;21024;-82
2021/06/10 10:11:37;;;;;;;3.25;2.25;;;;;;;26.89;31.30;99140.62;2176412;82;20959;-81
2021/06/10 10:14:38;;;;;;;3.98;2.40;;;;;;;26.49;31.10;99147.03;2176768;82;20932;-81
2021/06/10 10:17:38;;;;;;;11.80;2.60;;;;;;;25.94;31.33;99139.73;2176504;82;20963;-82
2021/06/10 10:20:41;;;;;;;3.83;2.22;;;;;;;25.59;32.78;99141.75;2176526;82;20967;-81
2021/06/10 10:23:41;;;;;;;23.18;4.65;;;;;;;25.38;33.60;99136.89;2176889;82;20971;-82
2021/06/10 10:26:43;;;;;;;4.58;2.72;;;;;;;25.29;33.56;99151.98;2176318;81;20948;-80
2021/06/10 10:29:44;;;;;;;2.42;2.22;;;;;;;25.76;33.31;99133.02;2176434;82;20939;-81
2021/06/10 10:32:45;;;;;;;2.55;2.30;;;;;;;26.15;31.41;99133.02;2177264;82;20988;-80
2021/06/10 10:35:46;;;;;;;4.65;2.55;;;;;;;26.37;30.85;99135.10;2176594;82;20952;-82
2021/06/10 10:38:53;;;;;;;4.17;2.80;;;;;;;26.39;31.05;99126.53;2176673;82;21008;-84
2021/06/10 10:41:54;;;;;;;4.47;3.02;;;;;;;25.92;32.17;99124.69;2176759;82;20992;-82
2021/06/10 10:44:55;;;;;;;4.87;2.70;;;;;;;26.15;32.21;99112.48;2176600;81;20999;-82
2021/06/10 10:48:08;;;;;;;3.15;2.80;;;;;;;25.97;32.21;99111.50;2176150;82;21158;-81
2021/06/10 10:50:59;;;;;;;6.60;3.47;;;;;;;25.44;33.37;99115.71;2173402;82;21015;-82
2021/06/10 10:54:02;;;;;;;5.55;3.10;;;;;;;24.95;34.02;99111.09;2176320;82;21159;-83
2021/06/10 10:57:02;;;;;;;5.87;3.30;;;;;;;24.94;34.44;99112.02;2176427;82;21047;-82
2021/06/10 11:00:03;;;;;;;18.85;3.05;;;;;;;25.36;33.97;99100.88;2192061;81;20998;-81
2021/06/10 11:03:06;;;;;;;3.17;2.33;;;;;;;25.66;32.52;99108.03;2193008;81;21006;-81
2021/06/10 11:06:06;;;;;;;2.85;2.42;;;;;;;26.10;32.27;99092.23;2192953;81;20904;-81
2021/06/10 11:09:20;;;;;;;3.10;2.60;;;;;;;26.52;31.09;99088.86;2192803;81;21347;-80
2021/06/10 11:12:19;;;;;;;4.33;2.85;;;;;;;26.73;30.61;99085.59;2191701;81;20978;-80
2021/06/10 11:15:23;;;;;;;6.65;2.35;;;;;;;26.30;30.78;99085.45;2192683;81;21011;-83
2021/06/10 11:18:21;;;;;;;4.60;2.70;;;;;;;25.83;30.68;99085.87;2192224;81;21043;-82
2021/06/10 11:21:22;;;;;;;5.53;2.90;;;;;;;25.91;31.34;99086.37;2192556;81;21194;-79
2021/06/10 11:24:23;;;;;;;3.65;2.90;;;;;;;26.10;30.39;99077.05;2192395;81;20951;-81
2021/06/10 11:27:24;;;;;;;3.22;2.72;;;;;;;26.29;30.81;99073.89;2192951;81;21050;-80
2021/06/10 11:30:25;;;;;;;3.12;2.20;;;;;;;26.52;30.39;99078.15;2192963;81;20927;-81
2021/06/10 11:33:32;;;;;;;9.08;2.70;;;;;;;26.77;30.67;99059.52;2192923;81;20892;-80
2021/06/10 11:36:33;;;;;;;4.05;2.35;;;;;;;26.75;29.88;99064.09;2193057;81;20946;-81
2021/06/10 11:39:36;;;;;;;3.92;2.35;;;;;;;26.78;29.40;99061.25;2124058;84;20966;-82
2021/06/10 11:42:39;;;;;;;3.33;2.02;;;;;;;26.43;29.80;99062.55;2123626;84;20995;-82
2021/06/10 11:45:40;;;;;;;6.03;2.65;;;;;;;26.26;29.11;99060.66;2124070;84;20990;-81
2021/06/10 11:48:41;;;;;;;2.35;2.15;;;;;;;26.51;29.42;99055.00;2123932;84;20987;-82
2021/06/10 11:51:45;;;;;;;3.75;2.58;;;;;;;26.17;30.38;99045.52;2124037;84;20955;-81
2021/06/10 11:54:44;;;;;;;2.60;2.40;;;;;;;25.81;31.07;99047.64;2124037;84;21403;-81
2021/06/10 11:57:45;;;;;;;4.92;2.30;;;;;;;26.29;30.37;99052.48;2121852;82;21477;-81
2021/06/10 12:00:46;;;;;;;4.10;2.10;;;;;;;26.57;29.45;99045.33;2112588;84;20935;-80
2021/06/10 12:03:51;;;;;;;2.85;2.58;;;;;;;26.68;28.52;99044.78;2113029;84;21002;-81
2021/06/10 12:06:55;;;;;;;4.15;2.77;;;;;;;27.06;28.91;99032.17;2112997;84;21362;-81
2021/06/10 12:09:56;;;;;;;2.80;2.60;;;;;;;26.72;30.99;99033.45;2113327;84;20963;-80
2021/06/10 12:12:57;;;;;;;3.37;2.65;;;;;;;26.85;30.12;99030.06;2112892;84;20987;-79
2021/06/10 12:16:00;;;;;;;3.87;2.50;;;;;;;26.36;31.16;99037.02;2113177;84;21034;-80
2021/06/10 12:19:00;;;;;;;2.33;2.15;;;;;;;26.56;30.44;99026.19;2113193;84;21051;-79
2021/06/10 12:22:02;;;;;;;6.10;2.45;;;;;;;26.65;29.49;99019.50;2113617;84;20944;-81
2021/06/10 12:25:02;;;;;;;3.33;2.58;;;;;;;26.52;30.68;99008.55;2113435;83;20983;-81
2021/06/10 12:28:03;;;;;;;3.25;2.70;;;;;;;25.91;31.15;99012.84;2113105;83;21010;-80
2021/06/10 12:31:04;;;;;;;5.92;2.72;;;;;;;26.11;30.60;99009.70;2112850;84;20920;-82
2021/06/10 12:34:05;;;;;;;3.87;2.70;;;;;;;26.46;29.58;99008.00;2112520;84;21022;-81
2021/06/10 12:37:06;;;;;;;3.15;2.37;;;;;;;26.73;29.77;99005.25;2173948;82;20991;-80
2021/06/10 12:40:07;;;;;;;3.80;2.58;;;;;;;26.95;30.31;98991.17;2183021;82;20948;-82
2021/06/10 12:43:08;;;;;;;6.28;2.60;;;;;;;27.23;29.77;98989.75;2183226;82;20939;-81
2021/06/10 12:46:10;;;;;;;5.50;2.30;;;;;;;27.51;29.09;98987.77;2183570;82;20964;-80
2021/06/10 12:49:11;;;;;;;4.72;2.65;;;;;;;27.27;30.18;99001.56;2183088;82;20923;-79
2021/06/10 12:52:12;;;;;;;2.90;2.60;;;;;;;27.19;30.04;99005.13;2183566;82;20996;-80
2021/06/10 12:55:15;;;;;;;2.72;2.52;;;;;;;26.56;31.02;99002.09;2183994;82;20964;-80
2021/06/10 12:58:16;;;;;;;2.80;2.52;;;;;;;25.89;32.26;98991.98;2185406;81;21070;-80
2021/06/10 13:01:17;;;;;;;4.58;2.62;;;;;;;25.66;32.84;98997.56;2192412;81;21065;-79
2021/06/10 13:04:18;;;;;;;5.40;2.92;;;;;;;25.87;33.19;98995.20;2193337;81;21003;-80
2021/06/10 13:07:19;;;;;;;4.87;2.92;;;;;;;25.79;33.71;98992.03;2192933;81;20924;-81
2021/06/10 13:10:22;;;;;;;6.35;2.87;;;;;;;25.62;33.44;98982.57;2193171;81;20928;-82
2021/06/10 13:13:22;;;;;;;10.82;3.45;;;;;;;25.55;34.12;98982.47;2193149;81;21034;-79
2021/06/10 13:16:26;;;;;;;9.60;3.00;;;;;;;26.08;34.00;98965.72;2193178;81;20959;-79
2021/06/10 13:19:26;;;;;;;7.72;3.00;;;;;;;26.46;33.28;98970.05;2193376;81;20996;-80
2021/06/10 13:22:27;;;;;;;5.12;2.62;;;;;;;26.61;32.81;98977.77;2193108;81;21344;-79
2021/06/10 13:25:28;;;;;;;6.85;3.20;;;;;;;26.69;32.21;98964.86;2193367;81;20986;-80
2021/06/10 13:28:29;;;;;;;5.30;2.75;;;;;;;26.55;32.27;98982.97;2193081;80;21427;-81
2021/06/10 13:31:32;;;;;;;3.10;2.42;;;;;;;26.51;32.32;98968.01;2193456;81;20935;-80
2021/06/10 13:34:43;;;;;;;7.30;2.42;;;;;;;26.71;32.21;98949.58;2193555;81;21039;-79
2021/06/10 13:37:41;;;;;;;5.12;2.50;;;;;;;26.68;32.04;98963.59;2192670;81;20999;-81
2021/06/10 13:40:42;;;;;;;5.15;2.50;;;;;;;26.88;32.17;98958.09;2193712;81;21291;-81
2021/06/10 13:43:44;;;;;;;3.00;2.12;;;;;;;26.84;31.78;98968.08;2193387;81;20954;-79
2021/06/10 13:46:45;;;;;;;3.45;2.52;;;;;;;26.69;31.76;98965.33;2193882;81;20995;-80
2021/06/10 13:49:46;;;;;;;3.05;2.27;;;;;;;26.56;32.21;98964.63;2193603;81;20983;-83
2021/06/10 13:52:48;;;;;;;6.28;2.90;;;;;;;26.53;32.36;98959.42;2193689;81;20979;-80
2021/06/10 13:55:49;;;;;;;5.03;2.30;;;;;;;26.28;31.81;98958.91;2193560;81;20951;-80
2021/06/10 13:58:50;;;;;;;6.67;2.52;;;;;;;26.33;32.39;98959.10;2193498;80;21039;-81
2021/06/10 14:01:51;;;;;;;2.42;2.22;;;;;;;26.40;32.51;98955.64;2193727;81;20951;-81
2021/06/10 14:04:52;;;;;;;2.92;2.60;;;;;;;26.54;31.87;98963.83;2193228;81;21006;-80
2021/06/10 14:07:52;;;;;;;3.52;2.70;;;;;;;26.55;31.41;98970.92;2193919;81;20943;-82
2021/06/10 14:10:53;;;;;;;7.95;2.58;;;;;;;26.32;31.88;98969.84;2193867;81;20939;-82
2021/06/10 14:13:54;;;;;;;3.22;2.20;;;;;;;26.34;31.45;98963.51;2193860;81;21061;-81